createdAt,value
2023-03-13T00:05:27.814Z,69.74
2023-03-13T00:15:31.313Z,71.22
2023-03-13T00:25:34.228Z,72.71
2023-03-13T00:35:36.970Z,72.78
2023-03-13T00:45:39.913Z,72.37
2023-03-13T00:55:53.248Z,71.72
2023-03-13T01:06:01.018Z,70.83
2023-03-13T01:16:06.035Z,69.47
2023-03-13T01:26:09.560Z,69.43
2023-03-13T01:36:12.928Z,69.99
2023-03-13T01:46:21.585Z,68.96
2023-03-13T01:56:36.777Z,69.44
2023-03-13T02:06:43.588Z,70.09
2023-03-13T02:16:48.960Z,71.92
2023-03-13T02:26:52.221Z,75.20
2023-03-13T02:36:56.688Z,74.36
2023-03-13T02:47:00.261Z,74.98
2023-03-13T02:57:05.478Z,75.70
2023-03-13T03:07:08.430Z,76.73
2023-03-13T03:17:12.353Z,77.09
2023-03-13T03:27:15.547Z,76.71
2023-03-13T03:37:24.341Z,77.09
2023-03-13T03:47:28.915Z,77.64
2023-03-13T03:57:32.522Z,77.15
2023-03-13T04:07:36.812Z,76.99
2023-03-13T04:17:42.231Z,77.11
2023-03-13T04:27:46.276Z,76.04
2023-03-13T04:37:50.018Z,75.77
2023-03-13T04:48:15.891Z,74.92
2023-03-13T04:58:51.045Z,74.52
2023-03-13T05:09:10.417Z,73.19
2023-03-13T05:19:29.492Z,74.63
2023-03-13T05:29:38.430Z,74.36
2023-03-13T05:40:10.929Z,72.66
2023-03-13T05:50:33.910Z,71.09
2023-03-13T06:00:55.168Z,70.22
2023-03-13T06:11:20.937Z,66.71
2023-03-13T06:21:24.030Z,64.62
2023-03-13T06:31:26.759Z,61.83
2023-03-13T06:41:30.010Z,60.50
2023-03-13T06:51:33.445Z,58.02
2023-03-13T07:01:37.266Z,56.39
2023-03-13T07:11:39.840Z,55.30
2023-03-13T07:21:42.469Z,53.27
2023-03-13T07:31:45.199Z,52.00
2023-03-13T07:41:47.937Z,51.44
2023-03-13T07:51:52.948Z,50.20
2023-03-13T08:01:55.494Z,49.06
2023-03-13T08:11:58.111Z,46.98
2023-03-13T08:22:00.713Z,46.89
2023-03-13T08:32:03.263Z,46.65
2023-03-13T08:42:05.854Z,43.81
2023-03-13T08:52:08.440Z,42.75
2023-03-13T09:02:11.403Z,41.68
2023-03-13T09:12:29.653Z,39.66
2023-03-13T09:22:33.120Z,39.47
2023-03-13T09:32:41.076Z,38.37
2023-03-13T09:42:53.215Z,37.67
2023-03-13T09:53:04.684Z,38.26
2023-03-13T10:03:26.758Z,38.88
2023-03-13T10:13:51.416Z,39.43
2023-03-13T10:24:01.019Z,40.79
2023-03-13T10:34:11.583Z,41.14
2023-03-13T10:44:19.700Z,41.16
2023-03-13T10:54:30.440Z,41.53
2023-03-13T11:04:35.371Z,40.90
2023-03-13T11:14:38.024Z,42.19
2023-03-13T11:24:50.098Z,41.91
2023-03-13T11:54:44.004Z,40.04
2023-03-13T12:04:55.633Z,37.49
2023-03-13T12:15:38.922Z,37.42
2023-03-13T12:26:12.024Z,37.97
2023-03-13T12:36:52.073Z,36.67
2023-03-13T12:46:54.758Z,35.79
2023-03-13T12:57:15.922Z,35.86
2023-03-13T13:07:24.491Z,39.26
2023-03-13T13:17:34.269Z,43.12
2023-03-13T13:27:38.693Z,42.56
2023-03-13T13:37:44.117Z,39.61
2023-03-13T13:47:49.353Z,37.81
2023-03-13T13:58:18.875Z,38.44
2023-03-13T14:08:30.698Z,39.18
2023-03-13T14:18:33.325Z,37.19
2023-03-13T14:28:35.789Z,38.08
2023-03-13T14:38:38.525Z,38.23
2023-03-13T14:48:41.812Z,38.20
2023-03-13T14:58:45.663Z,39.75
2023-03-13T15:09:07.519Z,40.52
2023-03-13T15:19:10.296Z,39.74
2023-03-13T15:29:13.556Z,40.46
2023-03-13T15:39:22.485Z,42.27
2023-03-13T15:49:25.003Z,43.70
2023-03-13T15:59:27.490Z,43.51
2023-03-13T16:09:30.043Z,44.06
2023-03-13T16:19:32.756Z,46.18
2023-03-13T16:29:35.552Z,45.47
2023-03-13T16:39:38.359Z,47.56
2023-03-13T16:49:40.791Z,47.66
2023-03-13T16:59:43.296Z,47.70
2023-03-13T17:09:46.501Z,48.98
2023-03-13T17:19:49.441Z,49.64
2023-03-13T17:29:53.188Z,50.89
2023-03-13T17:39:55.706Z,51.77
2023-03-13T17:49:58.858Z,51.70
2023-03-13T18:00:02.077Z,52.62
2023-03-13T18:10:24.206Z,54.87
2023-03-13T18:20:30.281Z,54.34
2023-03-13T18:30:33.294Z,55.58
2023-03-13T18:40:36.380Z,55.39
2023-03-13T18:50:39.238Z,54.35
2023-03-13T19:00:42.160Z,55.46
2023-03-13T19:10:44.780Z,55.11
2023-03-13T19:20:47.727Z,55.43
2023-03-13T19:30:50.259Z,55.54
2023-03-13T19:40:53.229Z,56.35
2023-03-13T19:50:55.837Z,57.99
2023-03-13T20:01:05.257Z,56.71
2023-03-13T20:11:15.879Z,58.32
2023-03-13T20:21:19.129Z,59.54
2023-03-13T20:31:24.469Z,59.12
2023-03-13T20:41:31.213Z,59.02
2023-03-13T20:51:34.415Z,58.92
2023-03-13T21:01:37.167Z,57.43
2023-03-13T21:11:39.603Z,58.35
2023-03-13T21:21:42.453Z,58.27
2023-03-13T21:31:45.037Z,57.57
2023-03-13T21:41:47.952Z,57.01
2023-03-13T21:51:50.475Z,57.65
2023-03-13T22:01:53.925Z,57.86
2023-03-13T22:11:56.511Z,58.74
2023-03-13T22:21:59.067Z,59.36
2023-03-13T22:32:02.548Z,57.98
2023-03-13T22:42:05.729Z,59.17
2023-03-13T22:52:08.284Z,58.04
2023-03-13T23:02:10.797Z,57.97
2023-03-13T23:12:13.274Z,58.70
2023-03-13T23:22:18.159Z,58.63
2023-03-13T23:32:21.284Z,59.34
2023-03-13T23:42:24.126Z,58.61
2023-03-13T23:52:27.011Z,57.83
